Date,TemperatureHighF,TemperatureAvgF,TemperatureLowF,DewpointHighF,DewpointAvgF,DewpointLowF,HumidityHigh,HumidityAvg,HumidityLow,PressureMaxIn,PressureMinIn,WindSpeedMaxMPH,WindSpeedAvgMPH,GustSpeedMaxMPH,PrecipitationSumIn
2013-2-1,64.8,58.0,51.8,56.1,52.1,-12.6,87,81,5,30.26,29.85,8,4,12,0.00
2013-2-2,64.4,58.9,54.9,57.2,52.2,42.6,87,79,62,29.85,29.35,19,9,27,0.15
2013-2-3,58.5,52.1,46.8,45.7,39.5,28.9,82,63,45,30.12,29.41,14,5,20,0.03
2013-2-4,57.6,48.7,41.5,40.8,33.1,24.1,76,56,30,30.29,30.09,9,3,12,0.00
2013-2-5,55.4,50.5,44.2,49.8,44.0,36.3,86,79,73,30.26,29.91,9,4,14,0.00
2013-2-6,57.7,53.1,47.3,49.5,42.9,35.4,87,69,46,29.88,29.58,18,6,24,0.15
2013-2-7,51.6,45.6,41.9,44.2,40.1,35.2,89,82,67,29.67,29.50,8,3,12,0.86
2013-2-8,53.1,46.4,41.0,36.1,33.0,28.6,70,60,50,29.88,29.64,12,5,17,0.00
2013-2-9,49.1,42.7,37.8,30.0,27.5,24.8,65,56,42,30.03,29.82,12,5,20,0.00
2013-2-10,37.9,35.8,34.3,26.4,25.8,25.0,71,67,60,30.00,29.91,4,3,8,0.00
2013-2-17,47.1,44.9,43.5,40.5,39.6,38.8,84,82,77,30.15,30.06,5,2,9,0.02
2013-2-18,52.7,45.3,40.1,42.3,38.6,35.8,86,78,64,30.12,30.03,9,2,10,0.05
2013-2-19,56.7,45.9,37.4,39.0,34.9,32.0,82,67,41,30.15,30.03,8,3,11,0.00
2013-2-20,56.1,46.5,36.7,41.4,36.8,30.7,81,70,56,30.09,29.97,8,3,8,0.00
2013-2-21,57.9,48.7,39.6,44.2,39.7,34.2,82,72,50,30.00,29.73,8,3,11,0.06
2013-2-22,55.8,52.2,48.2,50.2,46.6,26.4,87,82,35,29.73,29.50,12,3,64,0.03
2013-2-23,57.7,51.0,43.9,53.2,45.7,40.1,87,82,71,29.67,29.44,17,6,25,1.04
2013-2-24,51.3,46.7,42.3,42.8,37.5,34.3,82,71,55,30.03,29.67,14,5,20,0.07
2013-2-25,48.0,44.8,42.4,41.0,39.2,36.0,88,81,75,30.17,30.00,11,4,15,0.22
2013-2-26,56.7,48.1,41.4,43.2,39.9,36.9,85,74,58,30.23,30.09,5,2,8,0.00
2013-2-27,60.4,50.2,41.4,42.8,37.9,20.3,84,64,32,30.29,30.17,8,2,13,0.00
2013-2-28,61.3,49.9,39.7,46.4,40.4,34.3,82,71,54,30.29,30.20,7,2,10,0.00